sensor_id;sensor_type;location;lat;lon;timestamp;temperature;humidity
3818;DHT22;1924;48.078;11.516;2024-02-04T00:01:54;6.60;99.90
3818;DHT22;1924;48.078;11.516;2024-02-04T00:04:22;6.60;99.90
3818;DHT22;1924;48.078;11.516;2024-02-04T00:06:49;6.60;99.90
3818;DHT22;1924;48.078;11.516;2024-02-04T00:09:16;6.60;99.90
3818;DHT22;1924;48.078;11.516;2024-02-04T00:11:45;6.60;99.90
3818;DHT22;1924;48.078;11.516;2024-02-04T00:14:12;6.60;99.90
3818;DHT22;1924;48.078;11.516;2024-02-04T00:16:38;6.80;99.90
3818;DHT22;1924;48.078;11.516;2024-02-04T00:19:05;6.70;99.90
3818;DHT22;1924;48.078;11.516;2024-02-04T05:02:46;7.10;99.90
3818;DHT22;1924;48.078;11.516;2024-02-04T05:05:14;7.10;99.90
3818;DHT22;1924;48.078;11.516;2024-02-04T05:07:41;7.10;99.90
3818;DHT22;1924;48.078;11.516;2024-02-04T05:10:08;7.10;99.90
3818;DHT22;1924;48.078;11.516;2024-02-04T05:12:36;7.00;99.90
3818;DHT22;1924;48.078;11.516;2024-02-04T05:15:03;6.90;99.90
3818;DHT22;1924;48.078;11.516;2024-02-04T05:17:30;6.90;99.90
3818;DHT22;1924;48.078;11.516;2024-02-04T05:19:59;7.00;99.90
3818;DHT22;1924;48.078;11.516;2024-02-04T05:22:26;7.00;99.90
3818;DHT22;1924;48.078;11.516;2024-02-04T05:24:53;6.90;99.90
3818;DHT22;1924;48.078;11.516;2024-02-04T05:27:19;6.90;99.90
3818;DHT22;1924;48.078;11.516;2024-02-04T05:29:46;6.90;99.90
3818;DHT22;1924;48.078;11.516;2024-02-04T05:32:13;6.90;99.90
3818;DHT22;1924;48.078;11.516;2024-02-04T05:34:40;6.90;99.90
3818;DHT22;1924;48.078;11.516;2024-02-04T05:37:08;6.90;99.90
3818;DHT22;1924;48.078;11.516;2024-02-04T05:39:34;6.90;99.90
3818;DHT22;1924;48.078;11.516;2024-02-04T05:42:01;6.90;99.90
3818;DHT22;1924;48.078;11.516;2024-02-04T05:44:28;7.00;99.90
3818;DHT22;1924;48.078;11.516;2024-02-04T05:46:54;6.90;99.90
3818;DHT22;1924;48.078;11.516;2024-02-04T05:49:21;7.00;99.90
3818;DHT22;1924;48.078;11.516;2024-02-04T05:51:48;7.00;99.90
3818;DHT22;1924;48.078;11.516;2024-02-04T05:54:16;7.00;99.90
3818;DHT22;1924;48.078;11.516;2024-02-04T05:56:43;7.00;99.90
3818;DHT22;1924;48.078;11.516;2024-02-04T05:59:09;7.00;99.90
3818;DHT22;1924;48.078;11.516;2024-02-04T06:01:36;7.00;99.90
3818;DHT22;1924;48.078;11.516;2024-02-04T06:04:03;7.00;99.90
3818;DHT22;1924;48.078;11.516;2024-02-04T06:06:30;7.10;99.90
3818;DHT22;1924;48.078;11.516;2024-02-04T06:08:57;7.00;99.90
3818;DHT22;1924;48.078;11.516;2024-02-04T06:11:25;6.90;99.90
3818;DHT22;1924;48.078;11.516;2024-02-04T06:13:51;6.90;99.90
3818;DHT22;1924;48.078;11.516;2024-02-04T06:16:19;6.90;99.90
3818;DHT22;1924;48.078;11.516;2024-02-04T06:18:46;6.80;99.90
3818;DHT22;1924;48.078;11.516;2024-02-04T06:21:12;6.80;99.90
3818;DHT22;1924;48.078;11.516;2024-02-04T06:23:39;6.80;99.90
3818;DHT22;1924;48.078;11.516;2024-02-04T06:26:08;6.80;99.90
3818;DHT22;1924;48.078;11.516;2024-02-04T06:28:36;6.80;99.90
3818;DHT22;1924;48.078;11.516;2024-02-04T06:31:03;6.90;99.90
3818;DHT22;1924;48.078;11.516;2024-02-04T06:33:30;6.80;99.90
3818;DHT22;1924;48.078;11.516;2024-02-04T06:35:57;6.80;99.90
3818;DHT22;1924;48.078;11.516;2024-02-04T06:38:23;6.90;99.90
3818;DHT22;1924;48.078;11.516;2024-02-04T06:40:50;6.90;99.90
3818;DHT22;1924;48.078;11.516;2024-02-04T06:43:17;6.80;99.90
3818;DHT22;1924;48.078;11.516;2024-02-04T06:45:45;6.80;99.90
3818;DHT22;1924;48.078;11.516;2024-02-04T06:48:13;6.80;99.90
3818;DHT22;1924;48.078;11.516;2024-02-04T06:50:39;6.80;99.90
3818;DHT22;1924;48.078;11.516;2024-02-04T06:53:09;6.80;99.90
3818;DHT22;1924;48.078;11.516;2024-02-04T06:55:35;6.80;99.90
3818;DHT22;1924;48.078;11.516;2024-02-04T06:58:02;6.80;99.90
3818;DHT22;1924;48.078;11.516;2024-02-04T07:00:29;6.80;99.90
3818;DHT22;1924;48.078;11.516;2024-02-04T07:02:57;6.90;99.90
3818;DHT22;1924;48.078;11.516;2024-02-04T07:05:24;6.80;99.90
3818;DHT22;1924;48.078;11.516;2024-02-04T07:07:51;6.80;99.90
3818;DHT22;1924;48.078;11.516;2024-02-04T07:10:17;6.90;99.90
3818;DHT22;1924;48.078;11.516;2024-02-04T07:12:44;6.80;99.90
3818;DHT22;1924;48.078;11.516;2024-02-04T07:15:11;6.80;99.90
3818;DHT22;1924;48.078;11.516;2024-02-04T07:17:38;6.90;99.90
3818;DHT22;1924;48.078;11.516;2024-02-04T07:20:06;6.90;99.90
3818;DHT22;1924;48.078;11.516;2024-02-04T07:22:33;7.00;99.90
3818;DHT22;1924;48.078;11.516;2024-02-04T07:25:01;7.10;99.90
3818;DHT22;1924;48.078;11.516;2024-02-04T07:27:29;7.20;99.90
3818;DHT22;1924;48.078;11.516;2024-02-04T07:29:56;7.20;99.90
3818;DHT22;1924;48.078;11.516;2024-02-04T07:32:23;7.30;99.90
3818;DHT22;1924;48.078;11.516;2024-02-04T07:34:50;7.30;99.90
3818;DHT22;1924;48.078;11.516;2024-02-04T07:37:18;7.20;99.90
3818;DHT22;1924;48.078;11.516;2024-02-04T07:39:45;7.20;99.90
3818;DHT22;1924;48.078;11.516;2024-02-04T07:42:12;7.20;99.90
3818;DHT22;1924;48.078;11.516;2024-02-04T07:44:38;7.30;99.90
3818;DHT22;1924;48.078;11.516;2024-02-04T07:47:05;7.30;99.90
3818;DHT22;1924;48.078;11.516;2024-02-04T07:49:32;7.30;99.90
3818;DHT22;1924;48.078;11.516;2024-02-04T07:51:59;7.40;99.90
3818;DHT22;1924;48.078;11.516;2024-02-04T07:54:27;7.40;99.90
3818;DHT22;1924;48.078;11.516;2024-02-04T07:56:53;7.40;99.90
3818;DHT22;1924;48.078;11.516;2024-02-04T07:59:20;7.40;99.90
3818;DHT22;1924;48.078;11.516;2024-02-04T08:01:47;7.50;99.90
3818;DHT22;1924;48.078;11.516;2024-02-04T08:04:14;7.60;99.90
3818;DHT22;1924;48.078;11.516;2024-02-04T08:06:41;7.60;99.90
3818;DHT22;1924;48.078;11.516;2024-02-04T08:09:08;7.60;99.90
3818;DHT22;1924;48.078;11.516;2024-02-04T08:11:36;7.70;99.90
3818;DHT22;1924;48.078;11.516;2024-02-04T08:14:02;7.80;99.90
3818;DHT22;1924;48.078;11.516;2024-02-04T08:16:29;7.90;99.90
3818;DHT22;1924;48.078;11.516;2024-02-04T08:18:56;7.80;99.90
3818;DHT22;1924;48.078;11.516;2024-02-04T08:21:23;7.80;99.90
3818;DHT22;1924;48.078;11.516;2024-02-04T08:23:49;7.90;99.90
3818;DHT22;1924;48.078;11.516;2024-02-04T08:26:16;8.00;99.90
3818;DHT22;1924;48.078;11.516;2024-02-04T08:28:44;8.10;99.90
3818;DHT22;1924;48.078;11.516;2024-02-04T08:31:11;8.10;99.90
3818;DHT22;1924;48.078;11.516;2024-02-04T08:33:37;8.10;99.90
3818;DHT22;1924;48.078;11.516;2024-02-04T08:36:05;8.10;99.90
3818;DHT22;1924;48.078;11.516;2024-02-04T08:38:32;8.10;99.90
3818;DHT22;1924;48.078;11.516;2024-02-04T08:40:59;8.20;99.90
3818;DHT22;1924;48.078;11.516;2024-02-04T08:43:25;8.20;99.90
3818;DHT22;1924;48.078;11.516;2024-02-04T08:45:53;8.30;99.90
3818;DHT22;1924;48.078;11.516;2024-02-04T08:48:20;8.30;99.90
3818;DHT22;1924;48.078;11.516;2024-02-04T08:50:47;8.30;99.90
3818;DHT22;1924;48.078;11.516;2024-02-04T08:53:14;8.40;99.90
3818;DHT22;1924;48.078;11.516;2024-02-04T08:55:41;8.50;99.90
3818;DHT22;1924;48.078;11.516;2024-02-04T08:58:07;8.60;99.90
3818;DHT22;1924;48.078;11.516;2024-02-04T09:00:34;8.70;99.90
3818;DHT22;1924;48.078;11.516;2024-02-04T09:03:02;8.70;99.90
3818;DHT22;1924;48.078;11.516;2024-02-04T09:05:29;8.70;99.90
3818;DHT22;1924;48.078;11.516;2024-02-04T09:07:56;8.70;99.90
3818;DHT22;1924;48.078;11.516;2024-02-04T09:10:23;8.70;99.90
3818;DHT22;1924;48.078;11.516;2024-02-04T09:12:49;8.80;99.90
3818;DHT22;1924;48.078;11.516;2024-02-04T09:15:16;8.80;99.90
3818;DHT22;1924;48.078;11.516;2024-02-04T09:17:43;8.90;99.90
3818;DHT22;1924;48.078;11.516;2024-02-04T09:20:12;8.90;99.90
3818;DHT22;1924;48.078;11.516;2024-02-04T09:22:39;9.00;99.90
3818;DHT22;1924;48.078;11.516;2024-02-04T09:25:06;9.00;99.90
3818;DHT22;1924;48.078;11.516;2024-02-04T09:27:33;9.10;99.90
3818;DHT22;1924;48.078;11.516;2024-02-04T09:30:00;9.10;99.90
3818;DHT22;1924;48.078;11.516;2024-02-04T09:32:26;9.20;99.90
3818;DHT22;1924;48.078;11.516;2024-02-04T09:34:53;9.20;99.90
3818;DHT22;1924;48.078;11.516;2024-02-04T09:37:21;9.30;99.90
3818;DHT22;1924;48.078;11.516;2024-02-04T09:39:48;9.30;99.90
3818;DHT22;1924;48.078;11.516;2024-02-04T09:42:19;9.30;99.90
3818;DHT22;1924;48.078;11.516;2024-02-04T09:44:47;9.20;99.90
3818;DHT22;1924;48.078;11.516;2024-02-04T09:47:15;9.10;99.90
3818;DHT22;1924;48.078;11.516;2024-02-04T09:49:42;9.20;99.90
3818;DHT22;1924;48.078;11.516;2024-02-04T09:52:09;9.20;99.90
3818;DHT22;1924;48.078;11.516;2024-02-04T09:54:44;9.20;99.90
3818;DHT22;1924;48.078;11.516;2024-02-04T09:57:12;9.20;99.90
3818;DHT22;1924;48.078;11.516;2024-02-04T09:59:39;9.10;99.90
3818;DHT22;1924;48.078;11.516;2024-02-04T10:02:06;9.10;99.90
3818;DHT22;1924;48.078;11.516;2024-02-04T10:04:33;9.30;99.90
3818;DHT22;1924;48.078;11.516;2024-02-04T10:07:00;9.30;99.90
3818;DHT22;1924;48.078;11.516;2024-02-04T10:09:27;9.40;99.90
3818;DHT22;1924;48.078;11.516;2024-02-04T10:11:57;9.60;99.90
3818;DHT22;1924;48.078;11.516;2024-02-04T10:14:24;9.70;99.90
3818;DHT22;1924;48.078;11.516;2024-02-04T10:16:50;9.70;99.90
3818;DHT22;1924;48.078;11.516;2024-02-04T10:19:17;9.80;99.90
3818;DHT22;1924;48.078;11.516;2024-02-04T10:21:44;9.90;99.90
3818;DHT22;1924;48.078;11.516;2024-02-04T10:24:11;10.00;99.90
3818;DHT22;1924;48.078;11.516;2024-02-04T10:26:38;10.00;99.90
3818;DHT22;1924;48.078;11.516;2024-02-04T10:29:08;10.00;99.90
3818;DHT22;1924;48.078;11.516;2024-02-04T10:31:35;10.10;99.90
3818;DHT22;1924;48.078;11.516;2024-02-04T10:34:02;10.00;99.90
3818;DHT22;1924;48.078;11.516;2024-02-04T10:36:30;10.00;99.90
3818;DHT22;1924;48.078;11.516;2024-02-04T10:38:57;10.10;99.90
3818;DHT22;1924;48.078;11.516;2024-02-04T10:41:24;10.20;99.90
3818;DHT22;1924;48.078;11.516;2024-02-04T10:43:52;10.20;99.90
3818;DHT22;1924;48.078;11.516;2024-02-04T10:46:23;10.20;99.90
3818;DHT22;1924;48.078;11.516;2024-02-04T10:48:54;10.00;99.90
3818;DHT22;1924;48.078;11.516;2024-02-04T10:51:25;9.80;99.90
3818;DHT22;1924;48.078;11.516;2024-02-04T10:53:54;10.20;99.90
3818;DHT22;1924;48.078;11.516;2024-02-04T10:56:24;10.60;99.90
3818;DHT22;1924;48.078;11.516;2024-02-04T10:58:52;10.80;99.90
3818;DHT22;1924;48.078;11.516;2024-02-04T11:01:22;11.00;99.90
3818;DHT22;1924;48.078;11.516;2024-02-04T11:03:50;11.20;99.90
3818;DHT22;1924;48.078;11.516;2024-02-04T11:06:19;11.10;99.90
3818;DHT22;1924;48.078;11.516;2024-02-04T11:08:47;11.10;99.90
3818;DHT22;1924;48.078;11.516;2024-02-04T11:11:13;11.20;99.90
3818;DHT22;1924;48.078;11.516;2024-02-04T11:13:43;11.30;99.90
3818;DHT22;1924;48.078;11.516;2024-02-04T11:16:19;11.40;99.90
3818;DHT22;1924;48.078;11.516;2024-02-04T11:19:07;11.60;99.90
3818;DHT22;1924;48.078;11.516;2024-02-04T11:21:53;11.70;99.90
3818;DHT22;1924;48.078;11.516;2024-02-04T11:24:36;11.90;99.90
3818;DHT22;1924;48.078;11.516;2024-02-04T11:27:06;12.00;99.90
3818;DHT22;1924;48.078;11.516;2024-02-04T11:29:33;12.00;99.90
3818;DHT22;1924;48.078;11.516;2024-02-04T11:32:01;12.10;99.90
3818;DHT22;1924;48.078;11.516;2024-02-04T11:34:29;12.00;99.90
3818;DHT22;1924;48.078;11.516;2024-02-04T11:36:56;12.00;99.90
3818;DHT22;1924;48.078;11.516;2024-02-04T11:39:24;12.20;99.90
3818;DHT22;1924;48.078;11.516;2024-02-04T11:41:51;12.10;99.90
3818;DHT22;1924;48.078;11.516;2024-02-04T11:44:21;11.80;99.90
3818;DHT22;1924;48.078;11.516;2024-02-04T11:46:50;11.50;99.90
3818;DHT22;1924;48.078;11.516;2024-02-04T11:49:18;11.30;99.90
3818;DHT22;1924;48.078;11.516;2024-02-04T11:51:50;11.30;99.90
3818;DHT22;1924;48.078;11.516;2024-02-04T11:54:18;11.30;99.90
3818;DHT22;1924;48.078;11.516;2024-02-04T11:56:48;11.50;99.90
3818;DHT22;1924;48.078;11.516;2024-02-04T11:59:18;11.60;99.90
3818;DHT22;1924;48.078;11.516;2024-02-04T12:01:46;11.70;99.90
3818;DHT22;1924;48.078;11.516;2024-02-04T12:04:13;11.70;99.90
3818;DHT22;1924;48.078;11.516;2024-02-04T12:06:41;11.80;99.90
3818;DHT22;1924;48.078;11.516;2024-02-04T12:09:09;11.60;99.90
3818;DHT22;1924;48.078;11.516;2024-02-04T12:11:37;11.50;99.90
3818;DHT22;1924;48.078;11.516;2024-02-04T12:14:04;11.70;99.90
3818;DHT22;1924;48.078;11.516;2024-02-04T12:16:32;11.70;99.90
3818;DHT22;1924;48.078;11.516;2024-02-04T12:19:00;11.70;99.90
3818;DHT22;1924;48.078;11.516;2024-02-04T12:21:29;11.60;99.90
3818;DHT22;1924;48.078;11.516;2024-02-04T12:23:55;11.70;99.90
3818;DHT22;1924;48.078;11.516;2024-02-04T12:26:24;11.60;99.50
3818;DHT22;1924;48.078;11.516;2024-02-04T12:28:51;11.50;99.90
3818;DHT22;1924;48.078;11.516;2024-02-04T12:31:18;11.40;99.90
3818;DHT22;1924;48.078;11.516;2024-02-04T12:33:52;11.60;99.90
3818;DHT22;1924;48.078;11.516;2024-02-04T12:36:20;11.70;99.50
3818;DHT22;1924;48.078;11.516;2024-02-04T12:38:51;11.60;99.50
3818;DHT22;1924;48.078;11.516;2024-02-04T12:41:18;11.40;99.70
3818;DHT22;1924;48.078;11.516;2024-02-04T12:43:50;11.30;99.90
3818;DHT22;1924;48.078;11.516;2024-02-04T12:46:18;11.30;99.90
3818;DHT22;1924;48.078;11.516;2024-02-04T12:48:45;11.30;99.60
3818;DHT22;1924;48.078;11.516;2024-02-04T12:51:11;11.10;99.70
3818;DHT22;1924;48.078;11.516;2024-02-04T12:53:38;11.00;99.90
3818;DHT22;1924;48.078;11.516;2024-02-04T12:56:05;11.00;99.70
3818;DHT22;1924;48.078;11.516;2024-02-04T12:58:42;11.10;99.90
3818;DHT22;1924;48.078;11.516;2024-02-04T13:01:10;11.10;99.90
3818;DHT22;1924;48.078;11.516;2024-02-04T13:03:36;11.20;99.90
3818;DHT22;1924;48.078;11.516;2024-02-04T13:06:04;11.20;99.70
3818;DHT22;1924;48.078;11.516;2024-02-04T13:08:30;11.20;99.90
3818;DHT22;1924;48.078;11.516;2024-02-04T13:10:57;11.30;99.60
3818;DHT22;1924;48.078;11.516;2024-02-04T13:13:24;11.30;99.50
3818;DHT22;1924;48.078;11.516;2024-02-04T13:15:52;11.30;99.90
3818;DHT22;1924;48.078;11.516;2024-02-04T13:18:21;11.40;99.50
3818;DHT22;1924;48.078;11.516;2024-02-04T13:20:47;11.40;98.90
3818;DHT22;1924;48.078;11.516;2024-02-04T13:23:14;11.40;98.70
3818;DHT22;1924;48.078;11.516;2024-02-04T13:25:41;11.30;98.90
3818;DHT22;1924;48.078;11.516;2024-02-04T13:28:08;11.20;99.40
3818;DHT22;1924;48.078;11.516;2024-02-04T13:30:34;11.10;98.70
3818;DHT22;1924;48.078;11.516;2024-02-04T13:33:02;11.20;99.70
3818;DHT22;1924;48.078;11.516;2024-02-04T13:35:31;11.30;99.50
3818;DHT22;1924;48.078;11.516;2024-02-04T13:37:57;11.30;99.00
3818;DHT22;1924;48.078;11.516;2024-02-04T13:40:24;11.30;99.40
3818;DHT22;1924;48.078;11.516;2024-02-04T13:42:51;11.30;99.00
3818;DHT22;1924;48.078;11.516;2024-02-04T13:45:18;11.30;99.20
3818;DHT22;1924;48.078;11.516;2024-02-04T13:47:45;11.30;99.50
3818;DHT22;1924;48.078;11.516;2024-02-04T13:50:12;11.40;99.10
3818;DHT22;1924;48.078;11.516;2024-02-04T13:52:40;11.30;99.00
3818;DHT22;1924;48.078;11.516;2024-02-04T13:55:07;11.30;99.30
3818;DHT22;1924;48.078;11.516;2024-02-04T13:57:34;11.30;99.40
3818;DHT22;1924;48.078;11.516;2024-02-04T14:00:02;11.30;99.40
3818;DHT22;1924;48.078;11.516;2024-02-04T14:02:30;11.40;99.40
3818;DHT22;1924;48.078;11.516;2024-02-04T14:04:57;11.40;99.50
3818;DHT22;1924;48.078;11.516;2024-02-04T14:07:25;11.40;99.30
3818;DHT22;1924;48.078;11.516;2024-02-04T14:09:53;11.40;99.90
3818;DHT22;1924;48.078;11.516;2024-02-04T14:12:20;11.50;99.80
3818;DHT22;1924;48.078;11.516;2024-02-04T14:14:47;11.50;99.60
3818;DHT22;1924;48.078;11.516;2024-02-04T14:17:14;11.50;99.80
3818;DHT22;1924;48.078;11.516;2024-02-04T14:19:41;11.40;99.90
3818;DHT22;1924;48.078;11.516;2024-02-04T14:22:07;11.30;99.90
3818;DHT22;1924;48.078;11.516;2024-02-04T14:24:34;11.20;99.90
3818;DHT22;1924;48.078;11.516;2024-02-04T14:27:02;11.10;99.80
3818;DHT22;1924;48.078;11.516;2024-02-04T14:29:29;11.10;99.90
3818;DHT22;1924;48.078;11.516;2024-02-04T14:31:59;11.10;99.90
3818;DHT22;1924;48.078;11.516;2024-02-04T14:34:29;11.10;99.90
3818;DHT22;1924;48.078;11.516;2024-02-04T14:36:56;11.10;99.90
3818;DHT22;1924;48.078;11.516;2024-02-04T14:39:25;11.10;99.90
3818;DHT22;1924;48.078;11.516;2024-02-04T14:41:52;11.10;99.90
3818;DHT22;1924;48.078;11.516;2024-02-04T14:44:20;11.10;99.90
3818;DHT22;1924;48.078;11.516;2024-02-04T14:46:48;11.10;99.90
3818;DHT22;1924;48.078;11.516;2024-02-04T14:49:17;11.10;99.90
3818;DHT22;1924;48.078;11.516;2024-02-04T14:51:44;11.10;99.90
3818;DHT22;1924;48.078;11.516;2024-02-04T14:54:11;11.00;99.90
3818;DHT22;1924;48.078;11.516;2024-02-04T14:56:38;11.00;99.90
3818;DHT22;1924;48.078;11.516;2024-02-04T14:59:05;11.20;99.90
3818;DHT22;1924;48.078;11.516;2024-02-04T15:01:34;11.20;99.90
3818;DHT22;1924;48.078;11.516;2024-02-04T15:04:01;11.40;99.90
3818;DHT22;1924;48.078;11.516;2024-02-04T15:06:28;11.30;99.90
3818;DHT22;1924;48.078;11.516;2024-02-04T15:08:57;11.20;99.90
3818;DHT22;1924;48.078;11.516;2024-02-04T15:11:24;11.10;99.90
3818;DHT22;1924;48.078;11.516;2024-02-04T15:13:55;11.00;99.90
3818;DHT22;1924;48.078;11.516;2024-02-04T15:16:23;11.00;99.90
3818;DHT22;1924;48.078;11.516;2024-02-04T15:18:51;11.00;99.90
3818;DHT22;1924;48.078;11.516;2024-02-04T15:21:19;11.00;99.90
3818;DHT22;1924;48.078;11.516;2024-02-04T15:23:47;11.00;99.90
3818;DHT22;1924;48.078;11.516;2024-02-04T15:26:15;10.90;99.90
3818;DHT22;1924;48.078;11.516;2024-02-04T15:28:43;11.00;99.90
3818;DHT22;1924;48.078;11.516;2024-02-04T15:31:13;11.00;99.90
3818;DHT22;1924;48.078;11.516;2024-02-04T15:33:40;11.00;99.90
3818;DHT22;1924;48.078;11.516;2024-02-04T15:36:09;11.00;99.90
3818;DHT22;1924;48.078;11.516;2024-02-04T15:38:36;10.90;99.90
3818;DHT22;1924;48.078;11.516;2024-02-04T15:41:02;10.90;99.90
3818;DHT22;1924;48.078;11.516;2024-02-04T15:43:29;10.90;99.70
3818;DHT22;1924;48.078;11.516;2024-02-04T15:45:57;10.90;99.90
3818;DHT22;1924;48.078;11.516;2024-02-04T15:48:28;11.00;99.90
3818;DHT22;1924;48.078;11.516;2024-02-04T15:50:57;10.90;99.90
3818;DHT22;1924;48.078;11.516;2024-02-04T15:53:26;10.90;99.80
3818;DHT22;1924;48.078;11.516;2024-02-04T15:55:54;10.90;99.90
3818;DHT22;1924;48.078;11.516;2024-02-04T15:58:21;10.90;99.70
3818;DHT22;1924;48.078;11.516;2024-02-04T16:00:51;10.90;99.80
3818;DHT22;1924;48.078;11.516;2024-02-04T16:03:19;10.80;99.80
3818;DHT22;1924;48.078;11.516;2024-02-04T16:05:46;10.80;99.90
3818;DHT22;1924;48.078;11.516;2024-02-04T16:08:13;10.90;99.90
3818;DHT22;1924;48.078;11.516;2024-02-04T16:10:42;10.90;99.70
3818;DHT22;1924;48.078;11.516;2024-02-04T16:13:10;10.90;99.30
3818;DHT22;1924;48.078;11.516;2024-02-04T16:15:38;10.90;99.60
3818;DHT22;1924;48.078;11.516;2024-02-04T16:18:07;10.80;99.60
3818;DHT22;1924;48.078;11.516;2024-02-04T16:20:34;10.90;99.90
3818;DHT22;1924;48.078;11.516;2024-02-04T16:23:04;10.90;99.90
3818;DHT22;1924;48.078;11.516;2024-02-04T16:25:32;10.80;99.90
3818;DHT22;1924;48.078;11.516;2024-02-04T16:28:01;10.70;99.90
3818;DHT22;1924;48.078;11.516;2024-02-04T16:30:28;10.80;99.90
3818;DHT22;1924;48.078;11.516;2024-02-04T16:32:55;10.90;99.80
3818;DHT22;1924;48.078;11.516;2024-02-04T16:35:22;10.90;99.70
3818;DHT22;1924;48.078;11.516;2024-02-04T16:37:49;10.90;99.90
3818;DHT22;1924;48.078;11.516;2024-02-04T16:40:16;10.80;99.90
3818;DHT22;1924;48.078;11.516;2024-02-04T16:42:43;10.70;99.90
3818;DHT22;1924;48.078;11.516;2024-02-04T16:45:11;10.80;99.90
3818;DHT22;1924;48.078;11.516;2024-02-04T16:47:38;10.80;99.90
3818;DHT22;1924;48.078;11.516;2024-02-04T16:50:05;10.70;99.90
3818;DHT22;1924;48.078;11.516;2024-02-04T16:52:33;10.70;99.90
3818;DHT22;1924;48.078;11.516;2024-02-04T16:55:00;10.70;99.90
3818;DHT22;1924;48.078;11.516;2024-02-04T16:57:31;10.70;99.90
3818;DHT22;1924;48.078;11.516;2024-02-04T17:00:01;10.70;99.90
3818;DHT22;1924;48.078;11.516;2024-02-04T17:02:30;10.70;99.90
3818;DHT22;1924;48.078;11.516;2024-02-04T17:04:58;10.70;99.90
3818;DHT22;1924;48.078;11.516;2024-02-04T17:07:25;10.60;99.90
3818;DHT22;1924;48.078;11.516;2024-02-04T17:09:52;10.60;99.90
3818;DHT22;1924;48.078;11.516;2024-02-04T17:12:20;10.60;99.90
3818;DHT22;1924;48.078;11.516;2024-02-04T17:14:48;10.70;99.90
3818;DHT22;1924;48.078;11.516;2024-02-04T17:17:15;10.60;99.90
3818;DHT22;1924;48.078;11.516;2024-02-04T17:19:52;10.60;99.90
3818;DHT22;1924;48.078;11.516;2024-02-04T17:22:26;10.60;99.90
3818;DHT22;1924;48.078;11.516;2024-02-04T17:25:01;10.60;99.90
3818;DHT22;1924;48.078;11.516;2024-02-04T17:27:31;10.60;99.90
3818;DHT22;1924;48.078;11.516;2024-02-04T17:30:01;10.50;99.90
3818;DHT22;1924;48.078;11.516;2024-02-04T17:32:31;10.50;99.90
3818;DHT22;1924;48.078;11.516;2024-02-04T17:34:59;10.40;99.90
3818;DHT22;1924;48.078;11.516;2024-02-04T17:37:27;10.50;99.90
3818;DHT22;1924;48.078;11.516;2024-02-04T17:39:54;10.50;99.90
3818;DHT22;1924;48.078;11.516;2024-02-04T17:42:21;10.40;99.90
3818;DHT22;1924;48.078;11.516;2024-02-04T17:44:53;10.40;99.90
3818;DHT22;1924;48.078;11.516;2024-02-04T17:47:19;10.50;99.90
3818;DHT22;1924;48.078;11.516;2024-02-04T17:49:50;10.50;99.90
3818;DHT22;1924;48.078;11.516;2024-02-04T17:52:19;10.40;99.90
3818;DHT22;1924;48.078;11.516;2024-02-04T17:54:46;10.40;99.90
3818;DHT22;1924;48.078;11.516;2024-02-04T17:57:13;10.40;99.90
3818;DHT22;1924;48.078;11.516;2024-02-04T17:59:40;10.30;99.90
3818;DHT22;1924;48.078;11.516;2024-02-04T18:02:07;10.20;99.90
3818;DHT22;1924;48.078;11.516;2024-02-04T18:04:34;10.20;99.90
3818;DHT22;1924;48.078;11.516;2024-02-04T18:07:01;10.10;99.90
3818;DHT22;1924;48.078;11.516;2024-02-04T18:09:29;10.10;99.90
3818;DHT22;1924;48.078;11.516;2024-02-04T18:11:56;10.20;99.90
3818;DHT22;1924;48.078;11.516;2024-02-04T18:14:23;10.10;99.90
3818;DHT22;1924;48.078;11.516;2024-02-04T18:16:50;10.10;99.90
3818;DHT22;1924;48.078;11.516;2024-02-04T18:19:16;10.10;99.90
3818;DHT22;1924;48.078;11.516;2024-02-04T18:21:43;10.00;99.90
3818;DHT22;1924;48.078;11.516;2024-02-04T18:24:10;10.00;99.90
3818;DHT22;1924;48.078;11.516;2024-02-04T18:26:38;10.00;99.90
3818;DHT22;1924;48.078;11.516;2024-02-04T18:29:05;10.00;99.90
3818;DHT22;1924;48.078;11.516;2024-02-04T18:31:32;10.10;99.90
3818;DHT22;1924;48.078;11.516;2024-02-04T18:34:00;10.10;99.90
3818;DHT22;1924;48.078;11.516;2024-02-04T18:36:27;10.00;99.90
3818;DHT22;1924;48.078;11.516;2024-02-04T18:38:55;10.00;99.90
3818;DHT22;1924;48.078;11.516;2024-02-04T18:41:23;10.00;99.90
3818;DHT22;1924;48.078;11.516;2024-02-04T18:43:51;9.90;99.90
3818;DHT22;1924;48.078;11.516;2024-02-04T18:46:19;9.90;99.90
3818;DHT22;1924;48.078;11.516;2024-02-04T18:48:46;9.90;99.90
3818;DHT22;1924;48.078;11.516;2024-02-04T18:51:13;9.90;99.90
3818;DHT22;1924;48.078;11.516;2024-02-04T18:53:41;9.90;99.90
3818;DHT22;1924;48.078;11.516;2024-02-04T18:56:08;9.90;99.90
3818;DHT22;1924;48.078;11.516;2024-02-04T18:58:40;9.90;99.90
3818;DHT22;1924;48.078;11.516;2024-02-04T19:01:08;9.90;99.90
3818;DHT22;1924;48.078;11.516;2024-02-04T19:03:35;9.90;99.90
3818;DHT22;1924;48.078;11.516;2024-02-04T19:06:02;9.90;99.90
3818;DHT22;1924;48.078;11.516;2024-02-04T19:08:31;9.80;99.90
3818;DHT22;1924;48.078;11.516;2024-02-04T19:10:57;9.80;99.90
3818;DHT22;1924;48.078;11.516;2024-02-04T19:13:25;9.80;99.90
3818;DHT22;1924;48.078;11.516;2024-02-04T19:15:51;9.80;99.90
3818;DHT22;1924;48.078;11.516;2024-02-04T19:18:19;9.80;99.90
3818;DHT22;1924;48.078;11.516;2024-02-04T19:20:46;9.80;99.90
3818;DHT22;1924;48.078;11.516;2024-02-04T19:23:13;9.80;99.90
3818;DHT22;1924;48.078;11.516;2024-02-04T19:25:40;9.80;99.90
3818;DHT22;1924;48.078;11.516;2024-02-04T19:28:06;9.80;99.90
3818;DHT22;1924;48.078;11.516;2024-02-04T19:30:33;9.80;99.90
3818;DHT22;1924;48.078;11.516;2024-02-04T19:33:04;9.80;99.90
3818;DHT22;1924;48.078;11.516;2024-02-04T19:35:33;9.70;99.90
3818;DHT22;1924;48.078;11.516;2024-02-04T19:38:00;9.70;99.90
3818;DHT22;1924;48.078;11.516;2024-02-04T19:40:27;9.70;99.90
3818;DHT22;1924;48.078;11.516;2024-02-04T19:42:54;9.70;99.90
3818;DHT22;1924;48.078;11.516;2024-02-04T19:45:21;9.70;99.90
3818;DHT22;1924;48.078;11.516;2024-02-04T19:47:48;9.70;99.90
3818;DHT22;1924;48.078;11.516;2024-02-04T19:50:14;9.70;99.90
3818;DHT22;1924;48.078;11.516;2024-02-04T19:52:43;9.70;99.90
3818;DHT22;1924;48.078;11.516;2024-02-04T19:55:10;9.70;99.90
3818;DHT22;1924;48.078;11.516;2024-02-04T19:57:37;9.70;99.90
3818;DHT22;1924;48.078;11.516;2024-02-04T20:00:06;9.60;99.90
3818;DHT22;1924;48.078;11.516;2024-02-04T20:02:34;9.60;99.90
3818;DHT22;1924;48.078;11.516;2024-02-04T20:05:01;9.60;99.90
3818;DHT22;1924;48.078;11.516;2024-02-04T20:07:28;9.60;99.90
3818;DHT22;1924;48.078;11.516;2024-02-04T20:09:56;9.60;99.90
3818;DHT22;1924;48.078;11.516;2024-02-04T20:12:24;9.60;99.90
3818;DHT22;1924;48.078;11.516;2024-02-04T20:14:51;9.70;99.90
3818;DHT22;1924;48.078;11.516;2024-02-04T20:17:18;9.70;99.90
3818;DHT22;1924;48.078;11.516;2024-02-04T20:19:45;9.70;99.90
3818;DHT22;1924;48.078;11.516;2024-02-04T20:22:11;9.70;99.90
3818;DHT22;1924;48.078;11.516;2024-02-04T20:24:40;9.70;99.90
3818;DHT22;1924;48.078;11.516;2024-02-04T20:27:08;9.70;99.90
3818;DHT22;1924;48.078;11.516;2024-02-04T20:29:35;9.70;99.90
3818;DHT22;1924;48.078;11.516;2024-02-04T20:32:04;9.70;99.90
3818;DHT22;1924;48.078;11.516;2024-02-04T20:34:31;9.60;99.90
3818;DHT22;1924;48.078;11.516;2024-02-04T20:36:58;9.60;99.90
3818;DHT22;1924;48.078;11.516;2024-02-04T20:39:25;9.60;99.90